Flight Track Log - Related Links

Times and Time Zones

All times are in EDT time to prevent confusion due to time zone crossing. See the NKS904 flight status page for this flight to view local times or setup timezone preferences in your user account.


Time Position Orientation Groundspeed Altitude Reporting Facility
EDT Latitude Longitude Course Direction KTS MPH feet Rate Location/Type
Thu 12:29:04 PM 32.8550 -97.0290 180° South 180 207 2,200  Level FlightAware ADS-B
Thu 12:29:34 PM 32.8260 -97.0300 182° South 216 249 2,700 1,000 Climbing FlightAware ADS-B
Thu 12:29:46 PM 32.8140 -97.0300 180° South 233 268 2,900 2,143 Climbing FlightAware ADS-B
Thu 12:30:30 PM 32.7630 -97.0300 180° South 262 302 4,700 2,609 Climbing FlightAware ADS-B
Thu 12:31:18 PM 32.7120 -97.0210 172° South 264 304 6,900 2,700 Climbing FlightAware ADS-B
Thu 12:31:30 PM 32.7020 -97.0050 127° Southeast 269 310 7,400 2,200 Climbing FlightAware ADS-B
Thu 12:31:48 PM 32.6960 -96.9780 105° East 278 320 8,000 2,739 Climbing FlightAware ADS-B
Thu 12:32:16 PM 32.6890 -96.9290 100° East 289 333 9,500 2,000 Climbing FlightAware ADS-B
Thu 12:32:48 PM 32.6920 -96.8800 86° East 289 333 10,000 387 Climbing FlightAware ADS-B
Thu 12:33:18 PM 32.6950 -96.8270 86° East 338 389 9,900 -150 Descending FlightAware ADS-B
Thu 12:33:28 PM 32.6970 -96.8070 83° East 344 396 9,900 150 Level FlightAware ADS-B
Thu 12:33:58 PM 32.7140 -96.7540 69° East 349 402 10,000 985 Climbing FlightAware ADS-B
Thu 12:34:35 PM 32.7380 -96.6890 66° East 353 406 11,000 2,055 Climbing FlightAware ADS-B
Thu 12:35:11 PM 32.7610 -96.6260 67° East 361 415 12,500 2,488 Climbing FlightAware ADS-B
Thu 12:35:57 PM 32.7920 -96.5380 67° East 369 425 14,400 2,341 Climbing FlightAware ADS-B
Thu 12:36:33 PM 32.8160 -96.4720 67° East 374 430 15,700 2,000 Climbing FlightAware ADS-B
Thu 12:37:09 PM 32.8410 -96.4010 67° East 385 443 16,800 1,814 Climbing FlightAware ADS-B
Thu 12:37:59 PM 32.8660 -96.3020 73° East 395 455 18,300 1,724 Climbing FlightAware ADS-B
Thu 12:38:36 PM 32.8670 -96.2200 89° East 405 466 19,300 1,571 Climbing FlightAware ADS-B
Thu 12:39:23 PM 32.8780 -96.1150 83° East 410 472 20,500 1,517 Climbing FlightAware ADS-B
Thu 12:40:03 PM 32.8900 -96.0260 81° East 416 479 21,500 1,462 Climbing FlightAware ADS-B
Thu 12:40:41 PM 32.9010 -95.9380 82° East 419 482 22,400 1,342 Climbing FlightAware ADS-B
Thu 12:41:19 PM 32.9110 -95.8510 82° East 423 487 23,200 1,216 Climbing FlightAware ADS-B
Thu 12:41:55 PM 32.9220 -95.7650 81° East 428 493 23,900 1,263 Climbing FlightAware ADS-B
Thu 12:42:35 PM 32.9333 -95.6728 82° East 433 498 24,800 1,268 Climbing FlightAware ADS-B
Thu 12:43:06 PM 32.9426 -95.5980 82° East 439 505 25,400 1,114 Climbing FlightAware ADS-B
Thu 12:43:45 PM 32.9537 -95.5062 82° East 442 509 26,100 1,026 Climbing FlightAware ADS-B
Thu 12:44:22 PM 32.9640 -95.4160 82° East 447 514 26,700 1,043 Climbing FlightAware ADS-B
Thu 12:44:31 PM 32.9670 -95.3956 80° East 442 509 26,900 977 Climbing FlightAware ADS-B
Thu 12:45:05 PM 32.9770 -95.3110 82° East 452 520 27,400 1,040 Climbing FlightAware ADS-B
Thu 12:45:46 PM 32.9890 -95.2120 82° East 452 520 28,200 977 Climbing FlightAware ADS-B
Thu 12:46:31 PM 33.0020 -95.0980 82° East 459 528 28,800 741 Climbing FlightAware ADS-B
Thu 12:47:07 PM 33.0133 -95.0055 82° East 467 537 29,200 911 Climbing FlightAware ADS-B
Thu 12:47:50 PM 33.0258 -94.8980 82° East 469 540 30,000 1,023 Climbing FlightAware ADS-B
Thu 12:48:35 PM 33.0391 -94.7827 82° East 468 539 30,700 935 Climbing FlightAware ADS-B
Thu 12:49:07 PM 33.0488 -94.6993 82° East 470 541 31,200 1,304 Climbing FlightAware ADS-B
Thu 12:49:44 PM 33.0592 -94.6067 82° East 463 533 32,200 1,200 Climbing FlightAware ADS-B
Thu 12:50:17 PM 33.0686 -94.5227 82° East 464 534 32,600 553 Climbing FlightAware ADS-B
Thu 12:51:00 PM 33.0800 -94.4250 82° East 466 536 32,900 1,636 Climbing FlightAware ADS-B
Thu 12:51:23 PM 33.0870 -94.3587 83° East 448 516 34,400 1,853 Climbing FlightAware ADS-B
Thu 12:52:08 PM 33.0991 -94.2501 82° East 445 512 35,000 387 Climbing FlightAware ADS-B
Thu 12:52:56 PM 33.1120 -94.1360 82° East 442 509 35,000  Level FlightAware ADS-B
Thu 12:53:16 PM 33.1172 -94.0860 83° East 440 506 35,000  Level FlightAware ADS-B
Thu 12:53:48 PM 33.1256 -94.0082 83° East 445 512 35,000  Level FlightAware ADS-B
Thu 12:54:49 PM 33.1418 -93.8587 83° East 451 519 35,000  Level FlightAware ADS-B
Thu 12:55:25 PM 33.1513 -93.7699 83° East 453 521 35,000  Level FlightAware ADS-B
Thu 12:56:33 PM 33.1691 -93.6017 83° East 453 521 35,000  Level FlightAware ADS-B
Thu 12:57:08 PM 33.1783 -93.5135 83° East 450 518 35,000  Level FlightAware ADS-B
Thu 12:57:40 PM 33.1862 -93.4383 83° East 449 517 35,000  Level FlightAware ADS-B
Thu 12:58:17 PM 33.1957 -93.3465 83° East 450 518 35,000  Level FlightAware ADS-B
Thu 12:58:47 PM 33.2032 -93.2748 83° East 450 518 35,000  Level FlightAware ADS-B
Thu 12:59:25 PM 33.2128 -93.1790 83° East 450 518 35,000  Level FlightAware ADS-B
Thu 12:59:56 PM 33.2207 -93.1024 83° East 452 520 35,000  Level FlightAware ADS-B
Thu 01:00:53 PM 33.2369 -92.9631 83° East 447 514 35,000  Level Fort Worth Center
Thu 01:01:53 PM 33.2525 -92.8158 83° East 447 514 35,000  Level Fort Worth Center
Thu 01:02:53 PM 33.2678 -92.6658 83° East 447 514 35,000  Level Fort Worth Center
Thu 01:05:02 PM 33.2950 -92.3506 84° East 446 513 35,000  Level Memphis Center
Thu 01:06:02 PM 33.3097 -92.1992 83° East 446 513 35,000  Level Memphis Center
Thu 01:07:02 PM 33.3264 -92.0528 82° East 446 513 35,000  Level Memphis Center
Thu 01:08:02 PM 33.3389 -91.9039 84° East 446 513 35,000  Level Memphis Center
Thu 01:09:02 PM 33.3489 -91.7522 85° East 446 513 35,000  Level Memphis Center
Thu 01:10:02 PM 33.3567 -91.6156 86° East 446 513 35,000  Level Memphis Center
Thu 01:11:02 PM 33.3683 -91.4667 85° East 446 513 35,000  Level Memphis Center
Thu 01:12:02 PM 33.3822 -91.3175 84° East 446 513 35,000  Level Memphis Center
Thu 01:13:02 PM 33.3936 -91.1683 85° East 446 513 35,000  Level Memphis Center
Thu 01:14:02 PM 33.4072 -91.0142 84° East 446 513 35,000  Level Memphis Center
Thu 01:15:02 PM 33.4183 -90.8625 85° East 446 513 35,000  Level Memphis Center
Thu 01:16:02 PM 33.4314 -90.7131 84° East 446 513 35,000  Level Memphis Center
Thu 01:17:02 PM 33.4419 -90.5614 85° East 446 513 35,000  Level Memphis Center
Thu 01:18:02 PM 33.4547 -90.4094 84° East 452 520 35,000  Level Memphis Center
Thu 01:19:02 PM 33.4650 -90.2575 85° East 452 520 35,000  Level Memphis Center
Thu 01:20:02 PM 33.4775 -90.1033 84° East 458 527 35,000  Level Memphis Center
Thu 01:21:02 PM 33.4894 -89.9486 85° East 463 533 35,000  Level Memphis Center
Thu 01:22:02 PM 33.4994 -89.7942 86° East 463 533 35,000  Level Memphis Center
Thu 01:23:02 PM 33.5111 -89.6372 85° East 463 533 35,000  Level Memphis Center
Thu 01:24:02 PM 33.5225 -89.4800 85° East 463 533 35,000  Level Memphis Center
Thu 01:25:02 PM 33.5339 -89.3256 85° East 463 533 35,000  Level Memphis Center
Thu 01:26:02 PM 33.5428 -89.1658 86° East 463 533 35,000  Level Memphis Center
Thu 01:27:02 PM 33.5539 -89.0111 85° East 463 533 35,000  Level Memphis Center
Thu 01:28:02 PM 33.5292 -88.8544 101° East 463 533 35,000 50 Level Memphis Center
Thu 01:29:02 PM 33.4647 -88.7186 120° Southeast 463 533 35,100  Climbing Memphis Center
Thu 01:30:02 PM 33.4022 -88.5756 118° Southeast 468 539 35,000 -32 Descending Memphis Center
Thu 01:32:11 PM 33.2581 -88.2767 120° Southeast 478 550 35,000  Level Atlanta Center
Thu 01:33:11 PM 33.1958 -88.1397 118° Southeast 478 550 35,000  Level Atlanta Center
Thu 01:38:58 PM 32.8150 -87.3270 118° Southeast 475 547 35,000  Level FlightAware ADS-B
Thu 01:40:17 PM 32.7420 -87.1720 119° Southeast 476 548 35,000  Level FlightAware ADS-B
Thu 01:40:56 PM 32.6870 -87.0590 120° Southeast 476 548 35,000  Level FlightAware ADS-B
Thu 01:41:27 PM 32.6590 -87.0000 119° Southeast 476 548 35,000  Level FlightAware ADS-B
Thu 01:42:14 PM 32.6010 -86.8800 120° Southeast 479 551 35,000  Level FlightAware ADS-B
Thu 01:42:56 PM 32.5560 -86.7870 120° Southeast 478 550 35,000  Level FlightAware ADS-B
Thu 01:43:40 PM 32.5080 -86.6870 120° Southeast 478 550 35,000  Level FlightAware ADS-B
Thu 01:44:18 PM 32.4640 -86.5970 120° Southeast 479 551 35,000  Level FlightAware ADS-B
Thu 01:45:04 PM 32.4140 -86.4950 120° Southeast 478 550 35,000  Level FlightAware ADS-B
Thu 01:45:44 PM 32.3710 -86.4060 120° Southeast 477 549 35,000  Level FlightAware ADS-B
Thu 01:46:18 PM 32.3330 -86.3280 120° Southeast 475 547 35,000  Level FlightAware ADS-B
Thu 01:47:04 PM 32.2820 -86.2250 120° Southeast 474 545 35,000  Level FlightAware ADS-B
Thu 01:47:44 PM 32.2380 -86.1350 120° Southeast 473 544 35,000  Level FlightAware ADS-B
Thu 01:48:26 PM 32.1940 -86.0450 120° Southeast 471 542 35,000  Level FlightAware ADS-B
Thu 01:49:06 PM 32.1480 -85.9520 120° Southeast 471 542 35,000  Level FlightAware ADS-B
Thu 01:49:50 PM 32.1000 -85.8550 120° Southeast 469 540 35,000  Level FlightAware ADS-B
Thu 01:50:32 PM 32.0540 -85.7630 121° Southeast 468 539 35,000  Level FlightAware ADS-B
Thu 01:51:11 PM 32.0130 -85.6790 120° Southeast 467 537 35,000  Level FlightAware ADS-B
Thu 01:51:48 PM 31.9720 -85.5960 120° Southeast 465 535 35,000  Level FlightAware ADS-B
Thu 01:52:30 PM 31.9260 -85.5060 121° Southeast 466 536 35,000  Level FlightAware ADS-B
Thu 01:53:12 PM 31.8810 -85.4150 120° Southeast 466 536 35,000  Level FlightAware ADS-B
Thu 01:53:56 PM 31.8320 -85.3170 120° Southeast 468 539 35,000  Level FlightAware ADS-B
Thu 01:54:39 PM 31.7900 -85.2330 120° Southeast 468 539 35,000  Level FlightAware ADS-B
Thu 01:55:17 PM 31.7550 -85.1620 120° Southeast 468 539 35,000  Level FlightAware ADS-B
Thu 01:56:01 PM 31.7000 -85.0540 121° Southeast 468 539 35,000 68 Level FlightAware ADS-B
Thu 01:56:45 PM 31.6490 -84.9540 121° Southeast 465 535 35,100  Climbing FlightAware ADS-B
Thu 01:57:21 PM 31.6100 -84.8770 121° Southeast 464 534 35,000 -71 Descending FlightAware ADS-B
Thu 01:58:09 PM 31.5670 -84.7880 120° Southeast 464 534 35,000  Level FlightAware ADS-B
Thu 01:58:41 PM 31.5180 -84.6990 123° Southeast 461 531 35,000  Level FlightAware ADS-B
Thu 01:59:32 PM 31.4720 -84.6050 120° Southeast 461 531 35,000  Level FlightAware ADS-B
Thu 02:00:10 PM 31.4380 -84.5350 120° Southeast 461 531 35,000  Level FlightAware ADS-B
Thu 02:00:46 PM 31.4050 -84.4680 120° Southeast 461 531 35,000  Level FlightAware ADS-B
Thu 02:01:22 PM 31.3720 -84.4020 120° Southeast 461 531 35,000  Level FlightAware ADS-B
Thu 02:02:11 PM 31.2960 -84.2650 123° Southeast 456 525 35,000  Level FlightAware ADS-B
Thu 02:02:57 PM 31.2540 -84.1830 121° Southeast 456 525 35,000  Level FlightAware ADS-B
Thu 02:03:33 PM 31.2210 -84.1180 121° Southeast 456 525 35,000  Level FlightAware ADS-B
Thu 02:04:16 PM 31.1530 -83.9900 122° Southeast 452 520 35,000  Level FlightAware ADS-B
Thu 02:05:21 PM 31.1670 -84.0160 302° West 454 522 35,000  Level FlightAware ADS-B
Thu 02:06:19 PM 31.1410 -83.9660 121° Southeast 455 524 35,000  Level FlightAware ADS-B
Thu 02:07:04 PM 31.1320 -83.9480 120° Southeast 456 525 35,000  Level FlightAware ADS-B
Thu 02:07:40 PM 31.0990 -83.8830 121° Southeast 456 525 35,000  Level FlightAware ADS-B
Thu 02:08:28 PM 31.0540 -83.7970 121° Southeast 456 525 35,000  Level FlightAware ADS-B
Thu 02:09:28 PM 30.9990 -83.6900 121° Southeast 456 525 35,000  Level FlightAware ADS-B
Thu 02:10:04 PM 30.9660 -83.6250 121° Southeast 456 525 35,000  Level FlightAware ADS-B
Thu 02:10:52 PM 30.9210 -83.5390 121° Southeast 456 525 35,000  Level FlightAware ADS-B
Thu 02:11:32 PM 30.8850 -83.4670 120° Southeast 456 525 35,000  Level FlightAware ADS-B
Thu 02:12:20 PM 30.8400 -83.3810 121° Southeast 456 525 35,000  Level FlightAware ADS-B
Thu 02:12:56 PM 30.8070 -83.3170 121° Southeast 456 525 35,000  Level FlightAware ADS-B
Thu 02:13:44 PM 30.7630 -83.2310 121° Southeast 456 525 35,000  Level FlightAware ADS-B
Thu 02:14:21 PM 30.7280 -83.1650 122° Southeast 456 525 35,000  Level FlightAware ADS-B
Thu 02:14:57 PM 30.6950 -83.1010 121° Southeast 456 525 35,000  Level FlightAware ADS-B
Thu 02:15:46 PM 30.6500 -83.0130 121° Southeast 456 525 35,000  Level FlightAware ADS-B
Thu 02:16:22 PM 30.6170 -82.9490 121° Southeast 456 525 35,000 -4,500 Level FlightAware ADS-B
Thu 02:17:38 PM 30.0950 -82.5806 121° Southeast 433 498 26,600 -4,103 Descending Jacksonville Center
Thu 02:18:38 PM 30.0069 -82.4872 137° Southeast 433 498 25,700 -850 Descending Jacksonville Center
Thu 02:19:38 PM 29.9064 -82.4181 149° Southeast 433 498 24,900 -350 Descending Jacksonville Center
Thu 02:20:38 PM 29.7978 -82.3661 157° South 417 480 25,000 -150 Climbing Jacksonville Center
Thu 02:21:38 PM 29.6931 -82.3164 158° South 417 480 24,600 -700 Descending Jacksonville Center
Thu 02:22:38 PM 29.5864 -82.2644 157° South 417 480 23,600 -1,350 Descending Jacksonville Center
Thu 02:23:38 PM 29.4797 -82.2175 159° South 417 480 21,900 -1,835 Descending Jacksonville Center
Thu 02:29:07 PM 28.9530 -81.9640 159° South 316 364 11,700 -1,627 Descending FlightAware ADS-B
Thu 02:30:09 PM 28.8760 -81.9280 158° South 318 366 11,300 -1,286 Descending FlightAware ADS-B
Thu 02:31:13 PM 28.8460 -81.8240 108° East 289 333 9,000 -1,548 Descending FlightAware ADS-B
Thu 02:31:42 PM 28.8320 -81.7820 111° Southeast 289 333 8,900 -111 Descending FlightAware ADS-B
Thu 02:32:07 PM 28.8180 -81.7520 118° Southeast 291 335 8,900 150 Level FlightAware ADS-B
Thu 02:32:22 PM 28.8090 -81.7250 111° Southeast 292 336 9,000 167 Climbing FlightAware ADS-B
Thu 02:32:43 PM 28.8040 -81.7010 103° East 294 338 9,000  Level FlightAware ADS-B
Thu 02:33:17 PM 28.7940 -81.6430 101° East 293 337 9,000  Level FlightAware ADS-B
Thu 02:33:42 PM 28.7870 -81.6070 103° East 268 308 9,000 -471 Level FlightAware ADS-B
Thu 02:34:08 PM 28.7800 -81.5730 103° East 247 284 8,600 -1,053 Descending FlightAware ADS-B
Thu 02:34:39 PM 28.7740 -81.5400 102° East 247 284 8,000 -1,300 Descending FlightAware ADS-B
Thu 02:35:08 PM 28.7610 -81.4990 110° East 235 270 7,300 -1,358 Descending FlightAware ADS-B
Thu 02:35:32 PM 28.7470 -81.4720 121° Southeast 231 266 6,800 -1,347 Descending FlightAware ADS-B
Thu 02:35:57 PM 28.7330 -81.4470 123° Southeast 230 265 6,200 -1,636 Descending FlightAware ADS-B
Thu 02:36:27 PM 28.7170 -81.4170 121° Southeast 229 264 5,300 -1,700 Descending FlightAware ADS-B
Thu 02:36:57 PM 28.6970 -81.3850 125° Southeast 224 258 4,500 -1,560 Descending FlightAware ADS-B
Thu 02:37:17 PM 28.6830 -81.3720 141° Southeast 225 259 4,000 -1,440 Descending FlightAware ADS-B
Thu 02:37:47 PM 28.6560 -81.3490 143° Southeast 224 258 3,300 -1,000 Descending FlightAware ADS-B
Thu 02:38:17 PM 28.6300 -81.3320 150° Southeast 216 249 3,000 -436 Descending FlightAware ADS-B
Thu 02:38:42 PM 28.6060 -81.3290 174° South 211 243 2,900 -600 Descending FlightAware ADS-B
Thu 02:39:07 PM 28.5810 -81.3280 178° South 193 222 2,500 -960 Descending FlightAware ADS-B
Thu 02:39:32 PM 28.5580 -81.3280 180° South 193 222 2,100 -923 Descending FlightAware ADS-B
Thu 02:40:12 PM 28.5260 -81.3280 180° South 150 173 1,500 -800 Descending FlightAware ADS-B
Thu 02:40:32 PM 28.5130 -81.3270 176° South 133 153 1,300 421 Descending FlightAware ADS-B
Thu 02:41:09 PM 28.5500 -81.3280 359° North 188 216 1,900 97 Climbing FlightAware ADS-B
Thu 02:41:34 PM 28.5170 -81.3280 180° South 171 197 1,400 -1,889 Descending FlightAware ADS-B
Thu 02:42:03 PM 28.4550 -81.3270 179° South 131 151 200 -2,483 Descending FlightAware ADS-B
Thu 02:42:32 PM 28.4360 -81.3270 180° South 125 144 -414 Descending FlightAware ADS-B
Thu 02:43:17 PM 28.4250 -81.3240 167° South 32 37  Level FlightAware ADS-B
Thu 02:43:32 PM 28.4240 -81.3220 120° Southeast 34 39  Level FlightAware ADS-B
Thu 02:43:47 PM 28.4230 -81.3210 139° Southeast 20 23  Level FlightAware ADS-B
Thu 02:43:52 PM 28.4230 -81.3200 90° East 21 24  Level FlightAware ADS-B
Thu 02:44:17 PM 28.4230 -81.3170 90° East 19 22  Level FlightAware ADS-B
Thu 02:44:57 PM 28.4240 -81.3130 74° East 14 16  Level FlightAware ADS-B
Thu 02:45:32 PM 28.4260 -81.3110 41° Northeast 17 20  Level FlightAware ADS-B
Thu 02:46:22 PM 28.4280 -81.3120 336° Northwest 7 8  Level FlightAware ADS-B
Thu 02:46:47 PM 28.4270 -81.3130 221° Southwest 4 5  Level FlightAware ADS-B

Login

Don't have an account? Register now (free) for customized features, flight alerts, and more!